Time;durP1;ratioP1;P1;durP2;ratioP2;P2;SDS_P1;SDS_P2;PMS_P1;PMS_P2;Temp;Humidity;BMP_temperature;BMP_pressure;BME280_temperature;BME280_humidity;BME280_pressure;Samples;Min_cycle;Max_cycle;Signal;HPM_P1;HPM_P2
2021/12/15 00:01:58;;;;;;;0.50;0.50;;;;;;;5.46;95.47;100762.75;5084604;28;20029;-71
2021/12/15 00:04:23;;;;;;;1.05;1.05;;;;;;;5.42;95.42;100766.09;5085978;28;20095;-73
2021/12/15 00:06:49;;;;;;;0.40;0.40;;;;;;;5.37;95.65;100754.84;5085936;28;20035;-72
2021/12/15 00:09:14;;;;;;;0.32;0.32;;;;;;;5.41;95.25;100748.94;5084198;28;20055;-72
2021/12/15 00:11:41;;;;;;;0.40;0.40;;;;;;;5.54;95.63;100778.31;5085894;28;20400;-74
2021/12/15 00:14:15;;;;;;;0.40;0.40;;;;;;;5.46;95.60;100756.75;5085852;28;20130;-72
2021/12/15 00:16:42;;;;;;;0.40;0.40;;;;;;;5.60;95.23;100766.41;5085397;28;20021;-72
2021/12/15 00:19:07;;;;;;;1.88;1.77;;;;;;;5.63;95.62;100764.75;5085615;28;20108;-72
2021/12/15 00:21:33;;;;;;;0.40;0.40;;;;;;;5.58;95.53;100750.94;5085688;28;20024;-72
2021/12/15 00:24:04;;;;;;;0.40;0.40;;;;;;;5.57;95.59;100752.63;5085695;28;20126;-72
2021/12/15 00:26:30;;;;;;;1.60;1.52;;;;;;;5.63;95.37;100753.59;5084298;28;20123;-72
2021/12/15 00:28:55;;;;;;;0.40;0.40;;;;;;;5.56;95.25;100732.88;5085626;28;20411;-72
2021/12/15 00:31:21;;;;;;;0.40;0.40;;;;;;;5.59;95.40;100747.53;5084122;28;20030;-71
2021/12/15 00:33:47;;;;;;;0.40;0.40;;;;;;;5.66;95.05;100764.81;5086044;28;20029;-72
2021/12/15 00:36:13;;;;;;;35.60;2.20;;;;;;;5.63;95.03;100746.72;5085664;28;20020;-72
2021/12/15 00:38:40;;;;;;;1.80;1.70;;;;;;;5.68;94.75;100752.84;5085709;28;20094;-72
2021/12/15 00:41:22;;;;;;;0.40;0.40;;;;;;;5.68;95.30;100744.22;5084370;28;20025;-72
2021/12/15 00:43:47;;;;;;;0.50;0.50;;;;;;;5.73;95.45;100746.88;5085658;28;20028;-73
2021/12/15 00:46:14;;;;;;;0.40;0.40;;;;;;;5.70;95.12;100732.25;5085024;28;20017;-73
2021/12/15 00:48:40;;;;;;;0.40;0.40;;;;;;;5.73;95.25;100736.59;5083677;28;20082;-73
2021/12/15 00:51:06;;;;;;;0.40;0.40;;;;;;;5.70;95.14;100745.97;5085025;28;20016;-72
2021/12/15 00:53:31;;;;;;;0.63;0.63;;;;;;;5.68;94.92;100758.00;5085186;28;20017;-71
2021/12/15 00:55:57;;;;;;;0.40;0.40;;;;;;;5.63;95.02;100754.47;5085138;28;20039;-72
2021/12/15 00:58:22;;;;;;;0.80;0.80;;;;;;;5.66;94.97;100774.25;5085094;28;20024;-71
2021/12/15 01:00:52;;;;;;;0.40;0.40;;;;;;;5.61;94.89;100763.84;5083521;28;20024;-72
2021/12/15 01:03:18;;;;;;;0.40;0.40;;;;;;;5.61;95.22;100750.13;5084954;28;20016;-72
2021/12/15 01:05:48;;;;;;;0.40;0.40;;;;;;;5.62;95.13;100752.75;5084639;28;20099;-72
2021/12/15 01:08:21;;;;;;;0.40;0.40;;;;;;;5.70;95.12;100742.56;5084946;28;20351;-71
2021/12/15 01:11:15;;;;;;;0.40;0.40;;;;;;;5.73;95.22;100744.31;5084548;28;20398;-73
2021/12/15 01:22:03;;;;;;;0.40;0.40;;;;;;;5.77;95.12;100699.72;5084366;28;20495;-72
2021/12/15 01:24:29;;;;;;;0.30;0.30;;;;;;;5.72;95.30;100707.38;5084337;28;20025;-72
2021/12/15 01:26:55;;;;;;;0.40;0.40;;;;;;;5.75;95.03;100712.56;5084363;28;20020;-72
2021/12/15 01:29:20;;;;;;;0.40;0.40;;;;;;;5.70;95.14;100709.06;5084196;28;20027;-71
2021/12/15 01:31:46;;;;;;;0.40;0.40;;;;;;;5.80;95.23;100717.78;5084096;28;20047;-72
2021/12/15 01:34:12;;;;;;;0.40;0.40;;;;;;;5.79;95.20;100718.66;5084490;28;20020;-73
2021/12/15 01:36:37;;;;;;;0.50;0.50;;;;;;;5.74;95.20;100712.53;5083949;28;20102;-72
2021/12/15 01:39:04;;;;;;;0.45;0.45;;;;;;;5.85;95.41;100723.06;5082523;28;20025;-72
2021/12/15 01:41:29;;;;;;;0.40;0.40;;;;;;;5.85;95.38;100707.59;5083873;28;20427;-72
2021/12/15 01:46:56;;;;;;;0.38;0.38;;;;;;;5.86;95.05;100702.47;5083741;28;20096;-72
2021/12/15 01:49:41;;;;;;;4.05;1.73;;;;;;;5.82;95.20;100698.09;5083576;28;20052;-72
2021/12/15 01:52:35;;;;;;;0.75;0.75;;;;;;;5.85;94.84;100712.75;5083556;28;20020;-72
2021/12/15 01:55:06;;;;;;;0.40;0.40;;;;;;;5.85;95.12;100702.44;5081651;28;20101;-72
2021/12/15 01:57:34;;;;;;;0.30;0.30;;;;;;;5.80;94.92;100695.47;5083740;28;20029;-73
2021/12/15 02:00:09;;;;;;;2.75;2.58;;;;;;;5.79;95.44;100686.03;5081759;28;20023;-73
2021/12/15 02:02:34;;;;;;;0.30;0.30;;;;;;;5.82;95.34;100700.66;5082110;28;20016;-73
2021/12/15 02:05:00;;;;;;;0.35;0.35;;;;;;;5.81;95.25;100693.78;5082363;28;20031;-73
2021/12/15 02:07:25;;;;;;;0.40;0.40;;;;;;;5.79;95.39;100693.75;5083573;28;20039;-73
2021/12/15 02:12:21;;;;;;;0.82;0.82;;;;;;;5.81;95.17;100683.47;5083685;28;20021;-73
2021/12/15 02:14:47;;;;;;;0.40;0.40;;;;;;;5.83;95.09;100705.00;5083223;28;20024;-74
2021/12/15 02:17:12;;;;;;;0.38;0.38;;;;;;;5.79;95.21;100701.50;5083547;28;20020;-73
2021/12/15 02:19:38;;;;;;;0.40;0.40;;;;;;;5.78;95.46;100707.47;5083188;28;20369;-74
2021/12/15 02:22:04;;;;;;;0.50;0.50;;;;;;;5.83;95.39;100702.41;5083274;28;20020;-73
2021/12/15 02:24:30;;;;;;;0.40;0.40;;;;;;;5.84;95.65;100714.44;5083619;28;20025;-72
2021/12/15 02:26:59;;;;;;;0.40;0.40;;;;;;;5.83;95.58;100710.16;5083567;28;20027;-73
2021/12/15 02:29:29;;;;;;;0.40;0.40;;;;;;;5.87;95.59;100718.78;5083481;28;20043;-72
2021/12/15 02:32:15;;;;;;;0.30;0.30;;;;;;;5.83;95.10;100705.84;5083390;28;20032;-73
2021/12/15 02:37:24;;;;;;;0.57;0.57;;;;;;;5.89;95.36;100710.25;5083733;28;20051;-72
2021/12/15 02:39:57;;;;;;;0.40;0.40;;;;;;;5.87;95.50;100703.31;5083217;28;20032;-73
2021/12/15 02:42:26;;;;;;;0.40;0.40;;;;;;;5.89;95.70;100705.09;5081898;28;20021;-73
2021/12/15 02:44:52;;;;;;;0.38;0.38;;;;;;;5.92;95.39;100718.03;5083123;28;20016;-73
2021/12/15 02:47:21;;;;;;;0.40;0.40;;;;;;;5.89;95.37;100705.09;5083544;28;20031;-73
2021/12/15 02:49:51;;;;;;;1.40;1.35;;;;;;;5.97;95.35;100704.31;5081870;28;20024;-73
2021/12/15 02:52:16;;;;;;;0.30;0.30;;;;;;;5.93;95.11;100722.31;5083410;28;20025;-72
2021/12/15 02:54:42;;;;;;;0.40;0.40;;;;;;;5.92;95.04;100715.44;5083128;28;20454;-73
2021/12/15 02:57:11;;;;;;;0.40;0.40;;;;;;;5.93;95.15;100716.28;5083017;28;20032;-73
2021/12/15 03:00:06;;;;;;;0.30;0.30;;;;;;;5.67;95.06;100678.97;5083024;28;20035;-73
2021/12/15 03:04:01;;;;;;;0.38;0.38;;;;;;;5.70;95.15;100691.88;5082664;28;20048;-74
2021/12/15 03:06:33;;;;;;;0.40;0.40;;;;;;;5.89;94.87;100714.53;5073350;28;20063;-73
2021/12/15 03:08:29;;;;;;;0.40;0.40;;;;;;;5.77;94.85;100704.88;5077774;28;20095;-74
2021/12/15 03:16:25;;;;;;;0.30;0.30;;;;;;;5.85;95.02;100713.59;5086688;28;20036;-74
2021/12/15 03:18:51;;;;;;;0.30;0.30;;;;;;;5.71;95.15;100690.19;5085744;28;20025;-74
2021/12/15 03:21:24;;;;;;;0.30;0.30;;;;;;;5.67;95.11;100678.13;5085449;28;20024;-73
2021/12/15 03:23:56;;;;;;;0.30;0.30;;;;;;;5.71;95.29;100677.31;5085792;28;20036;-74
2021/12/15 03:26:36;;;;;;;0.32;0.32;;;;;;;5.91;95.09;100708.53;5086556;28;20021;-74
2021/12/15 03:37:20;;;;;;;0.40;0.40;;;;;;;5.82;94.63;100703.25;5086388;28;20020;-73
2021/12/15 03:39:46;;;;;;;;;;;;;;;5.85;94.67;100716.16;5086657;28;20032;-73
2021/12/15 03:42:16;;;;;;;0.30;0.30;;;;;;;5.76;94.47;100714.31;5086091;28;19930;-73
2021/12/15 03:44:44;;;;;;;0.40;0.40;;;;;;;5.80;94.81;100716.09;5084748;28;20388;-75
2021/12/15 03:47:14;;;;;;;0.40;0.40;;;;;;;5.56;95.26;100672.75;5086143;28;20021;-75
2021/12/15 03:49:40;;;;;;;0.35;0.35;;;;;;;5.62;95.14;100666.84;5084522;28;20020;-74
2021/12/15 03:52:07;;;;;;;0.30;0.30;;;;;;;5.87;95.25;100695.56;5085844;28;20078;-73
2021/12/15 03:54:33;;;;;;;0.52;0.52;;;;;;;5.67;95.11;100675.53;5085648;28;20021;-74
2021/12/15 03:56:59;;;;;;;0.40;0.40;;;;;;;5.85;95.28;100695.56;5085971;28;20017;-74
2021/12/15 03:59:27;;;;;;;0.40;0.40;;;;;;;5.70;95.59;100662.69;5084183;28;20032;-72
2021/12/15 04:01:52;;;;;;;0.40;0.40;;;;;;;5.91;95.45;100702.53;5085663;28;20024;-73
2021/12/15 04:04:18;;;;;;;0.40;0.40;;;;;;;5.92;95.42;100705.13;5084141;28;20285;-75
2021/12/15 04:06:43;;;;;;;0.40;0.40;;;;;;;5.92;95.68;100691.38;5085878;28;20042;-73
2021/12/15 04:09:12;;;;;;;0.40;0.40;;;;;;;5.91;95.74;100675.03;5085404;28;20580;-74
2021/12/15 04:11:38;;;;;;;0.38;0.38;;;;;;;5.76;95.81;100651.63;5085598;28;20076;-74
2021/12/15 04:14:09;;;;;;;0.40;0.40;;;;;;;5.95;95.92;100670.81;5083951;28;20016;-75
2021/12/15 04:19:10;;;;;;;0.40;0.40;;;;;;;6.05;95.88;100677.00;5085773;28;20340;-75
2021/12/15 04:21:37;;;;;;;0.40;0.40;;;;;;;5.84;95.97;100647.44;5083946;28;20111;-76
2021/12/15 04:24:02;;;;;;;0.40;0.40;;;;;;;5.98;95.66;100664.81;5085302;28;20025;-77
2021/12/15 04:26:28;;;;;;;0.40;0.40;;;;;;;6.01;95.80;100682.91;5083969;28;20016;-75
2021/12/15 04:28:54;;;;;;;0.40;0.40;;;;;;;5.92;95.64;100673.34;5083923;28;20111;-76
2021/12/15 04:31:25;;;;;;;0.63;0.63;;;;;;;5.95;95.34;100684.56;5084970;28;20094;-74
2021/12/15 04:34:04;;;;;;;0.40;0.40;;;;;;;5.80;95.41;100658.53;5083777;28;20028;-77
2021/12/15 04:36:34;;;;;;;0.40;0.40;;;;;;;5.86;95.43;100678.41;5083742;28;20020;-75
2021/12/15 04:39:00;;;;;;;0.40;0.40;;;;;;;5.77;95.45;100654.22;5085198;28;20033;-73
2021/12/15 04:41:27;;;;;;;0.30;0.30;;;;;;;5.78;95.69;100653.34;5084811;28;20021;-75
2021/12/15 04:43:58;;;;;;;0.40;0.40;;;;;;;5.82;95.54;100667.16;5085055;28;20028;-76
2021/12/15 04:46:31;;;;;;;0.43;0.43;;;;;;;5.80;95.82;100668.84;5084651;28;20047;-77
2021/12/15 04:48:57;;;;;;;0.32;0.32;;;;;;;5.63;95.46;100635.09;5083798;28;20080;-80
2021/12/15 04:51:23;;;;;;;0.32;0.32;;;;;;;5.80;95.69;100668.84;5083595;28;20535;-80
2021/12/15 04:53:52;;;;;;;0.40;0.40;;;;;;;5.75;95.76;100661.03;5083919;28;20572;-82
2021/12/15 04:56:18;;;;;;;0.30;0.30;;;;;;;5.72;95.89;100658.41;5084420;28;20036;-82
2021/12/15 04:58:46;;;;;;;0.40;0.40;;;;;;;5.69;95.70;100643.78;5085084;28;20023;-80
2021/12/15 05:01:12;;;;;;;72.47;3.63;;;;;;;5.70;95.93;100648.09;5083034;28;20060;-82
2021/12/15 05:03:38;;;;;;;3.30;3.10;;;;;;;5.67;95.92;100653.19;5085288;28;20031;-82
2021/12/15 05:06:05;;;;;;;0.40;0.40;;;;;;;5.70;96.10;100652.41;5083530;28;20511;-84
2021/12/15 05:08:30;;;;;;;1.20;1.20;;;;;;;5.65;95.84;100646.31;5083309;28;20036;-75
2021/12/15 05:10:56;;;;;;;0.40;0.40;;;;;;;5.65;95.88;100652.31;5084202;28;20075;-78
2021/12/15 05:13:36;;;;;;;0.40;0.40;;;;;;;5.65;96.11;100654.91;5082760;28;20028;-77
2021/12/15 05:16:03;;;;;;;0.40;0.40;;;;;;;5.68;95.97;100656.66;5082687;28;20087;-77
2021/12/15 05:18:29;;;;;;;0.40;0.40;;;;;;;5.70;96.00;100658.41;5082795;28;20543;-77
2021/12/15 05:20:55;;;;;;;3.25;1.33;;;;;;;5.78;96.19;100676.53;5084069;28;20028;-78
2021/12/15 05:23:27;;;;;;;0.40;0.40;;;;;;;5.77;95.84;100658.50;5082781;28;20020;-76
2021/12/15 05:25:53;;;;;;;0.40;0.40;;;;;;;5.67;96.30;100637.75;5083740;28;20020;-73
2021/12/15 05:28:18;;;;;;;0.40;0.40;;;;;;;5.78;96.54;100660.25;5082674;28;20027;-74
2021/12/15 05:30:44;;;;;;;0.40;0.40;;;;;;;5.75;96.32;100661.03;5082590;28;20016;-78
2021/12/15 05:33:09;;;;;;;0.40;0.40;;;;;;;5.78;96.35;100673.13;5082711;28;20039;-75
2021/12/15 05:35:36;;;;;;;0.40;0.40;;;;;;;5.79;96.30;100667.13;5083686;28;20051;-72
2021/12/15 05:38:04;;;;;;;0.40;0.40;;;;;;;5.78;96.34;100663.66;5084041;28;20102;-72
2021/12/15 05:40:30;;;;;;;0.40;0.40;;;;;;;5.74;96.28;100661.03;5083651;28;20032;-72
2021/12/15 05:42:58;;;;;;;0.40;0.40;;;;;;;5.75;96.34;100660.19;5083795;28;20020;-72
2021/12/15 05:45:25;;;;;;;0.50;0.50;;;;;;;5.79;96.28;100657.69;5083645;28;20460;-72
2021/12/15 05:47:51;;;;;;;0.40;0.40;;;;;;;5.68;95.99;100642.06;5083904;28;20017;-73
2021/12/15 05:50:17;;;;;;;0.40;0.40;;;;;;;5.73;96.21;100639.56;5083627;28;20035;-73
2021/12/15 05:52:42;;;;;;;0.40;0.40;;;;;;;5.78;96.30;100652.50;5083649;28;20025;-72
2021/12/15 05:55:16;;;;;;;0.50;0.50;;;;;;;5.75;96.15;100653.31;5082111;28;20028;-75
2021/12/15 05:57:42;;;;;;;1.80;1.75;;;;;;;5.76;96.15;100656.75;5082031;28;20035;-73
2021/12/15 06:00:11;;;;;;;0.40;0.40;;;;;;;5.70;96.21;100667.84;5083251;28;20333;-71
2021/12/15 06:02:37;;;;;;;1.95;1.85;;;;;;;5.68;96.44;100659.22;5082228;28;20115;-72
2021/12/15 06:05:03;;;;;;;0.40;0.40;;;;;;;5.70;96.25;100666.13;5083315;28;20475;-73
2021/12/15 06:07:29;;;;;;;0.50;0.50;;;;;;;5.71;96.48;100669.56;5083505;28;20043;-72
2021/12/15 06:09:54;;;;;;;0.40;0.40;;;;;;;5.66;96.33;100664.34;5083086;28;20072;-73
2021/12/15 06:12:20;;;;;;;0.40;0.40;;;;;;;5.68;96.48;100657.53;5083237;28;20032;-72
2021/12/15 06:14:45;;;;;;;0.40;0.40;;;;;;;5.55;96.28;100651.31;5081935;28;20056;-72
2021/12/15 06:17:12;;;;;;;0.77;0.77;;;;;;;5.51;96.37;100641.78;5082939;28;20031;-72
2021/12/15 06:19:38;;;;;;;0.40;0.40;;;;;;;5.62;96.35;100670.31;5081621;28;20025;-72
2021/12/15 06:22:05;;;;;;;0.43;0.43;;;;;;;5.62;96.63;100675.47;5083424;28;20032;-72
2021/12/15 06:24:31;;;;;;;2.70;2.50;;;;;;;5.73;96.56;100687.63;5081792;28;20028;-72
2021/12/15 06:27:03;;;;;;;0.77;0.77;;;;;;;5.61;96.66;100662.56;5081955;28;20028;-72
2021/12/15 06:29:29;;;;;;;0.40;0.40;;;;;;;5.74;96.52;100686.78;5083125;28;20043;-74
2021/12/15 06:31:55;;;;;;;0.50;0.50;;;;;;;5.60;96.53;100660.81;5081573;28;20384;-73
2021/12/15 06:34:20;;;;;;;0.40;0.40;;;;;;;5.52;96.46;100652.97;5082846;28;20020;-73
2021/12/15 06:36:46;;;;;;;0.40;0.40;;;;;;;5.81;96.65;100686.06;5082977;28;20344;-73
2021/12/15 06:39:11;;;;;;;0.30;0.30;;;;;;;5.70;96.87;100671.28;5082578;28;20020;-74
2021/12/15 06:41:37;;;;;;;0.40;0.40;;;;;;;5.69;96.55;100666.09;5082992;28;20021;-73
2021/12/15 06:44:02;;;;;;;0.40;0.40;;;;;;;5.80;96.49;100686.88;5083167;28;20024;-74
2021/12/15 06:57:35;;;;;;;0.40;0.40;;;;;;;6.06;97.07;100700.22;5082994;28;20035;-72
2021/12/15 07:00:07;;;;;;;0.40;0.40;;;;;;;5.95;97.14;100679.41;5082935;28;20099;-73
2021/12/15 07:02:33;;;;;;;8.40;4.68;;;;;;;6.08;97.49;100689.94;5082687;28;20029;-71
2021/12/15 07:04:58;;;;;;;0.40;0.40;;;;;;;6.03;97.35;100681.22;5082892;28;20048;-72
2021/12/15 07:07:24;;;;;;;14.82;3.70;;;;;;;6.03;97.56;100669.22;5083013;28;20028;-72
2021/12/15 07:09:49;;;;;;;3.28;3.03;;;;;;;6.10;97.35;100656.44;5082534;28;20123;-72
2021/12/15 07:12:15;;;;;;;0.30;0.30;;;;;;;6.07;97.65;100646.97;5082971;28;20073;-72
2021/12/15 07:14:40;;;;;;;0.90;0.90;;;;;;;6.26;97.39;100678.16;5083071;28;20016;-73
2021/12/15 07:17:10;;;;;;;0.40;0.40;;;;;;;6.27;97.69;100670.44;5082663;28;20029;-73
2021/12/15 07:20:03;;;;;;;0.75;0.75;;;;;;;6.38;97.56;100673.16;5082822;28;20047;-72
2021/12/15 07:22:32;;;;;;;0.40;0.40;;;;;;;6.39;97.71;100667.13;5082274;28;20028;-71
2021/12/15 07:24:59;;;;;;;0.40;0.40;;;;;;;6.52;97.64;100681.06;5081397;28;20025;-71
2021/12/15 07:27:24;;;;;;;0.45;0.45;;;;;;;6.52;97.37;100659.53;5081532;28;20021;-71
2021/12/15 07:29:51;;;;;;;0.50;0.50;;;;;;;6.48;97.01;100679.31;5082827;28;20040;-71
2021/12/15 07:32:17;;;;;;;0.40;0.40;;;;;;;6.52;97.22;100685.34;5082646;28;20031;-72
2021/12/15 07:34:42;;;;;;;1.55;1.45;;;;;;;6.35;96.85;100677.38;5082931;28;20020;-72
2021/12/15 07:37:08;;;;;;;0.40;0.40;;;;;;;6.30;96.98;100664.44;5082577;28;20112;-72
2021/12/15 07:39:35;;;;;;;0.80;0.80;;;;;;;6.36;96.97;100671.41;5082426;28;20256;-71
2021/12/15 07:42:08;;;;;;;0.40;0.40;;;;;;;6.47;96.52;100687.03;5082552;28;20012;-71
2021/12/15 07:44:36;;;;;;;0.40;0.40;;;;;;;6.44;96.76;100688.69;5082780;28;20021;-71
2021/12/15 07:47:01;;;;;;;0.50;0.50;;;;;;;6.30;96.42;100664.44;5081175;28;20088;-71
2021/12/15 07:49:28;;;;;;;0.65;0.65;;;;;;;6.34;96.57;100685.97;5084189;28;20029;-71
2021/12/15 07:52:00;;;;;;;0.75;0.75;;;;;;;6.21;96.16;100665.19;5084982;28;20017;-70
2021/12/15 07:54:27;;;;;;;0.40;0.40;;;;;;;6.18;96.37;100667.72;5085046;28;20056;-70
2021/12/15 07:56:53;;;;;;;0.40;0.40;;;;;;;6.16;96.45;100666.84;5086505;28;20081;-70
2021/12/15 07:59:18;;;;;;;0.43;0.43;;;;;;;6.31;96.63;100689.41;5086287;28;20048;-71
2021/12/15 08:01:44;;;;;;;0.70;0.70;;;;;;;6.31;96.40;100700.56;5084814;28;20016;-70
2021/12/15 08:04:09;;;;;;;0.40;0.40;;;;;;;6.09;96.55;100657.28;5084939;28;20365;-70
2021/12/15 08:06:35;;;;;;;0.40;0.40;;;;;;;6.33;96.58;100705.75;5084742;28;20013;-71
2021/12/15 08:09:00;;;;;;;0.40;0.40;;;;;;;6.23;96.45;100681.53;5090968;28;20032;-70
2021/12/15 08:11:26;;;;;;;0.40;0.40;;;;;;;6.22;96.29;100687.53;5085827;28;20021;-70
2021/12/15 08:13:51;;;;;;;0.93;0.93;;;;;;;6.28;96.49;100697.06;5085934;28;20039;-71
2021/12/15 08:16:19;;;;;;;0.40;0.40;;;;;;;6.10;96.36;100656.44;5084247;28;20036;-72
2021/12/15 08:18:47;;;;;;;0.40;0.40;;;;;;;6.31;96.89;100687.66;5085049;28;20028;-71
2021/12/15 08:21:14;;;;;;;0.60;0.60;;;;;;;6.37;96.69;100694.63;5085716;28;20025;-70
2021/12/15 08:23:39;;;;;;;0.50;0.50;;;;;;;6.26;97.02;100679.00;5084165;28;20052;-70
2021/12/15 08:26:05;;;;;;;0.40;0.40;;;;;;;6.22;96.94;100671.19;5085758;28;20035;-71
2021/12/15 08:28:31;;;;;;;0.50;0.50;;;;;;;6.35;96.90;100696.31;5085460;28;20039;-70
2021/12/15 08:30:59;;;;;;;1.23;0.95;;;;;;;6.44;97.15;100704.19;5085442;28;20505;-71
2021/12/15 08:33:26;;;;;;;0.40;0.40;;;;;;;6.34;96.87;100679.13;5083945;28;20020;-69
2021/12/15 08:35:58;;;;;;;0.77;0.77;;;;;;;6.42;97.24;100681.81;5084018;28;20025;-70
2021/12/15 08:38:26;;;;;;;0.55;0.55;;;;;;;6.32;97.29;100648.16;5085309;28;20032;-71
2021/12/15 08:40:52;;;;;;;0.40;0.40;;;;;;;6.62;97.27;100700.09;5085257;28;20170;-71
2021/12/15 08:43:19;;;;;;;5.63;3.45;;;;;;;6.53;97.38;100682.78;5085137;28;20032;-70
2021/12/15 08:45:53;;;;;;;0.50;0.50;;;;;;;6.62;97.31;100694.06;5084920;28;20046;-71
2021/12/15 08:48:19;;;;;;;0.50;0.50;;;;;;;6.51;97.51;100693.94;5083791;28;20024;-71
2021/12/15 08:50:45;;;;;;;0.40;0.40;;;;;;;6.60;97.46;100700.94;5084905;28;20081;-70
2021/12/15 08:53:12;;;;;;;0.47;0.47;;;;;;;6.62;97.37;100712.13;5085169;28;20099;-69
2021/12/15 08:55:43;;;;;;;0.40;0.40;;;;;;;6.48;97.46;100689.63;5083779;28;20111;-69
2021/12/15 08:58:11;;;;;;;0.40;0.40;;;;;;;6.54;97.69;100691.41;5085022;28;20077;-71
2021/12/15 09:00:39;;;;;;;1.05;1.05;;;;;;;6.69;97.42;100734.59;5083908;28;20028;-69
2021/12/15 09:03:04;;;;;;;2.05;1.95;;;;;;;6.72;97.49;100731.19;5084857;28;20028;-69
2021/12/15 09:05:30;;;;;;;0.68;0.68;;;;;;;6.77;97.44;100740.69;5083488;28;20055;-69
2021/12/15 09:07:59;;;;;;;0.40;0.40;;;;;;;6.83;97.50;100745.09;5084889;28;20023;-70
2021/12/15 09:10:29;;;;;;;0.40;0.40;;;;;;;6.78;97.80;100724.41;5084746;28;20037;-70
2021/12/15 09:12:55;;;;;;;0.40;0.40;;;;;;;6.83;97.73;100732.19;5084733;28;20039;-70
2021/12/15 09:15:20;;;;;;;0.40;0.40;;;;;;;6.79;97.74;100714.91;5084220;28;20067;-69
2021/12/15 09:17:47;;;;;;;22.38;3.70;;;;;;;6.71;97.50;100699.34;5084256;28;20476;-69
2021/12/15 09:20:17;;;;;;;0.40;0.40;;;;;;;6.95;97.85;100723.72;5084222;28;20025;-70
2021/12/15 09:22:42;;;;;;;0.40;0.40;;;;;;;6.97;97.51;100711.69;5083146;28;20037;-68
2021/12/15 09:25:11;;;;;;;0.50;0.50;;;;;;;6.98;97.71;100710.84;5084553;28;20032;-69
2021/12/15 09:27:38;;;;;;;0.80;0.77;;;;;;;7.02;97.83;100711.75;5082993;28;20488;-69
2021/12/15 09:30:06;;;;;;;0.40;0.40;;;;;;;7.07;97.63;100713.56;5082869;28;20051;-69
2021/12/15 09:32:31;;;;;;;0.40;0.40;;;;;;;7.10;97.42;100723.03;5084216;28;20020;-68
2021/12/15 09:34:57;;;;;;;0.50;0.50;;;;;;;7.04;97.47;100704.91;5082898;28;20028;-69
2021/12/15 09:37:23;;;;;;;0.40;0.40;;;;;;;7.06;97.55;100713.53;5083996;28;20056;-70
2021/12/15 09:39:48;;;;;;;0.40;0.40;;;;;;;7.06;97.37;100698.03;5083064;28;20088;-71
2021/12/15 09:42:18;;;;;;;0.60;0.60;;;;;;;7.10;97.19;100704.09;5084105;28;20035;-70
2021/12/15 09:44:44;;;;;;;0.40;0.40;;;;;;;6.98;97.29;100681.59;5084319;28;20092;-69
2021/12/15 09:47:38;;;;;;;0.40;0.40;;;;;;;7.14;97.15;100711.88;5083869;28;20023;-71
2021/12/15 10:03:51;;;;;;;0.82;0.82;;;;;;;7.12;96.97;100692.94;5083973;28;20428;-69
2021/12/15 10:17:41;;;;;;;0.40;0.40;;;;;;;7.06;96.75;100706.63;5083264;28;20027;-71
2021/12/15 10:20:13;;;;;;;0.60;0.60;;;;;;;7.10;96.82;100711.81;5083552;28;20047;-69
2021/12/15 10:22:43;;;;;;;;;;;;;;;7.14;96.56;100719.63;5082560;28;20032;-69
2021/12/15 10:25:08;;;;;;;0.40;0.40;;;;;;;7.11;96.71;100729.91;5083571;28;19975;-69
2021/12/15 10:27:49;;;;;;;0.40;0.40;;;;;;;7.02;96.47;100714.34;5082098;28;20067;-69
2021/12/15 10:30:45;;;;;;;0.45;0.45;;;;;;;6.96;96.41;100703.94;5081504;28;20024;-69
2021/12/15 10:33:23;;;;;;;4.57;2.72;;;;;;;7.06;96.68;100716.13;5083453;28;20110;-69
2021/12/15 10:36:08;;;;;;;0.40;0.40;;;;;;;7.06;96.45;100708.38;5082123;28;20031;-69
2021/12/15 10:38:44;;;;;;;0.30;0.30;;;;;;;7.06;96.24;100698.03;5082178;28;20029;-68
2021/12/15 10:41:15;;;;;;;0.40;0.40;;;;;;;6.96;96.55;100680.72;5083410;28;20044;-70
2021/12/15 10:43:48;;;;;;;0.40;0.40;;;;;;;6.94;96.58;100675.53;5083139;28;20119;-69
2021/12/15 10:46:22;;;;;;;2.67;2.42;;;;;;;6.93;96.63;100679.81;5081685;28;20021;-69
2021/12/15 10:49:01;;;;;;;0.40;0.40;;;;;;;6.99;96.48;100675.56;5081892;28;20051;-68
2021/12/15 10:51:26;;;;;;;0.40;0.40;;;;;;;7.06;96.76;100678.22;5083111;28;20092;-69
2021/12/15 10:53:55;;;;;;;0.40;0.40;;;;;;;7.07;96.78;100679.13;5083351;28;20028;-69
2021/12/15 10:56:23;;;;;;;0.40;0.40;;;;;;;7.14;96.98;100680.91;5081572;28;20052;-68
2021/12/15 10:58:52;;;;;;;0.70;0.70;;;;;;;7.19;97.15;100684.41;5082994;28;20604;-68
2021/12/15 11:01:43;;;;;;;0.40;0.40;;;;;;;7.06;96.98;100647.25;5082921;28;20024;-68
2021/12/15 11:04:30;;;;;;;0.40;0.40;;;;;;;7.31;96.90;100687.97;5081703;28;20017;-69
2021/12/15 11:07:13;;;;;;;0.30;0.30;;;;;;;7.34;97.07;100687.97;5081540;28;20587;-68
2021/12/15 11:09:42;;;;;;;0.40;0.40;;;;;;;7.39;96.91;100677.69;5081307;28;20052;-70
2021/12/15 11:12:08;;;;;;;0.63;0.63;;;;;;;7.44;96.84;100684.63;5082809;28;20020;-69
2021/12/15 11:14:40;;;;;;;0.40;0.40;;;;;;;7.47;97.22;100685.50;5081778;28;20209;-69
2021/12/15 11:17:19;;;;;;;;;;;;;;;7.51;96.42;100677.78;5083056;28;20062;-69
2021/12/15 11:20:03;;;;;;;0.40;0.40;;;;;;;7.52;96.38;100686.41;5081597;28;19908;-69
2021/12/15 11:22:33;;;;;;;0.40;0.40;;;;;;;7.56;96.54;100683.00;5081516;28;20043;-69
2021/12/15 11:25:01;;;;;;;2.83;2.65;;;;;;;7.49;96.44;100688.97;5083977;28;20092;-68
2021/12/15 11:27:27;;;;;;;0.40;0.40;;;;;;;7.53;96.45;100698.47;5086861;28;20016;-69
2021/12/15 11:29:53;;;;;;;0.30;0.30;;;;;;;7.43;96.08;100675.16;5086743;28;20025;-69
2021/12/15 11:32:40;;;;;;;0.40;0.40;;;;;;;7.56;96.23;100701.09;5086402;28;20020;-67
2021/12/15 11:35:11;;;;;;;0.40;0.40;;;;;;;7.42;96.10;100676.00;5086586;28;20028;-69
2021/12/15 11:37:53;;;;;;;0.82;0.82;;;;;;;7.54;96.12;100700.22;5086617;28;20043;-69
2021/12/15 11:41:08;;;;;;;0.40;0.40;;;;;;;7.41;96.20;100682.00;5086367;28;20485;-69
2021/12/15 11:43:42;;;;;;;2.63;2.47;;;;;;;7.50;96.07;100711.38;5083126;28;20028;-68
2021/12/15 11:46:19;;;;;;;4.88;4.53;;;;;;;7.52;96.11;100722.59;5086337;28;20024;-68
2021/12/15 11:48:51;;;;;;;0.40;0.40;;;;;;;7.51;96.13;100723.41;5086366;28;20470;-70
2021/12/15 11:51:34;;;;;;;0.40;0.40;;;;;;;7.42;96.06;100719.94;5086249;28;20036;-69
2021/12/15 11:54:11;;;;;;;0.40;0.40;;;;;;;7.46;96.20;100714.78;5086171;28;20017;-70
2021/12/15 11:56:37;;;;;;;0.85;0.85;;;;;;;7.44;95.99;100699.28;5086126;28;20136;-69
2021/12/15 11:59:35;;;;;;;0.40;0.40;;;;;;;7.53;96.00;100703.66;5084419;28;20228;-70
2021/12/15 12:02:28;;;;;;;0.60;0.60;;;;;;;7.52;95.91;100707.09;5084496;28;20548;-69
2021/12/15 12:05:10;;;;;;;0.40;0.40;;;;;;;7.51;96.17;100710.50;5086178;28;20090;-71
2021/12/15 12:07:38;;;;;;;0.50;0.50;;;;;;;7.53;96.18;100729.47;5086040;28;20076;-70
2021/12/15 12:10:18;;;;;;;0.40;0.40;;;;;;;7.52;95.82;100728.63;5085710;28;20277;-71
2021/12/15 12:12:57;;;;;;;0.40;0.40;;;;;;;7.52;96.27;100748.44;5084463;28;20038;-70
2021/12/15 12:15:28;;;;;;;0.85;0.82;;;;;;;7.53;96.40;100732.94;5085577;28;20071;-70
2021/12/15 12:18:00;;;;;;;4.40;3.42;;;;;;;7.35;96.05;100710.38;5085769;28;20055;-70
2021/12/15 12:20:45;;;;;;;;;;;;;;;7.58;95.83;100748.50;5084715;28;20115;-71
2021/12/15 12:23:14;;;;;;;0.40;0.40;;;;;;;7.36;95.88;100717.28;5085563;28;19915;-71
2021/12/15 12:25:47;;;;;;;0.40;0.40;;;;;;;7.33;95.87;100714.69;5084039;28;20021;-70
2021/12/15 12:28:19;;;;;;;0.50;0.50;;;;;;;7.39;95.74;100722.47;5085535;28;20058;-71
2021/12/15 12:30:58;;;;;;;0.40;0.40;;;;;;;7.52;96.40;100744.13;5085462;28;20017;-70
2021/12/15 12:33:26;;;;;;;1.10;1.10;;;;;;;7.56;95.66;100743.31;5084164;28;20093;-72
2021/12/15 12:36:09;;;;;;;0.40;0.40;;;;;;;7.31;95.73;100708.63;5082395;28;20024;-70
2021/12/15 12:38:39;;;;;;;0.40;0.40;;;;;;;7.40;96.00;100726.78;5085396;28;20063;-70
2021/12/15 12:41:14;;;;;;;0.38;0.38;;;;;;;7.44;95.83;100732.84;5083891;28;20031;-70
2021/12/15 12:43:42;;;;;;;1.63;1.58;;;;;;;7.48;95.73;100746.66;5085345;28;20029;-71
2021/12/15 12:46:16;;;;;;;0.40;0.40;;;;;;;7.26;95.59;100720.59;5084886;28;20174;-70
2021/12/15 13:00:29;;;;;;;0.70;0.70;;;;;;;7.51;95.53;100762.19;5081207;28;20033;-70
2021/12/15 13:03:01;;;;;;;0.50;0.50;;;;;;;7.51;95.65;100767.34;5084798;28;20020;-72
2021/12/15 13:05:32;;;;;;;;;;;;;;;7.51;95.35;100736.34;5084190;28;20040;-69
2021/12/15 13:08:01;;;;;;;0.32;0.32;;;;;;;7.46;95.46;100740.63;5084869;28;19908;-70